Arzamas, Russia
Current Conditions -  °F | °C
As of 3:00 PM on Friday 28 Nov 2014 (Local Time) from UWGG Reporting Station
Overcast Overcast  
Wind Chill: 13°   Ceiling: 700
Heat Index: 19°   Visibility: 6mi
Dew Point: 18°   Wind: 4mph
Humidity: 93%   Direction: NA
Pressure: 30.68"   Gusts: NA
Location:  55.38°N, 43.82°E
Report Text: UWGG 281200Z VRB02MPS 9000 OVC007 M07/M08 Q1039 NOSIG 36190042RMK QFE772
Loading
Personal Weather Stations






























Interactive Weather Map New forecast layout! Learn more

10-Day Weather Forecast

Advertisements
Track Severe Weather on mobile